• Join FlightAware (Why Join?)
  • Login
  • US Flag 
07:24AM EDT


 

Airport Tracker/Info


-or-


 

Live Flight TrackerFlight Track Log ✈ N588AC ✈ 21-Apr-2013 ✈ KBKL - KBCB

Flight Track Log - Related Links

Times and Time Zones

All times are in EDT time to prevent confusion due to time zone crossing. See the N588AC flight status page for this flight to view local times or setup timezone preferences in your user account.

Time Position Orientation Groundspeed Altitude Reporting Facility
EDT Latitude Longitude Course Direction KTS MPH feet Rate Location/Type
07:35PM 41.5253 -81.6703 54° Northeast 162 186 1,400  Level Cleveland Center
07:36PM 41.5572 -81.6125 54° Northeast 196 226 2,500 960 Climbing Cleveland Center
07:37PM 41.5764 -81.5769 54° Northeast 225 259 3,000 780 Climbing Cleveland Center
07:37PM 41.5744 -81.5381 94° East 247 284 3,300 1,080 Climbing Cleveland Center
07:38PM 41.5392 -81.5264 166° South 228 262 4,100 1,800 Climbing Cleveland Center
07:39PM 41.4744 -81.5336 185° South 235 270 6,300 2,520 Climbing Cleveland Center
07:41PM 41.3378 -81.6617 215° Southwest 281 323 11,700 2,640 Climbing Cleveland Center
07:42PM 41.2664 -81.7186 211° Southwest 300 345 14,300 2,580 Climbing Cleveland Center
07:43PM 41.1947 -81.7861 215° Southwest 312 359 16,900 1,920 Climbing Cleveland Center
07:44PM 41.1358 -81.8375 213° Southwest 317 365 18,200 2,040 Climbing Cleveland Center
07:45PM 41.0497 -81.9103 213° Southwest 332 382 21,000 2,520 Climbing Cleveland Center
07:46PM 40.9778 -81.9803 216° Southwest 327 376 23,300 2,100 Climbing Cleveland Center
07:47PM 40.9042 -82.0500 216° Southwest 327 376 25,300 1,800 Climbing Cleveland Center
07:48PM 40.8158 -82.1086 207° Southwest 327 376 26,900 1,740 Climbing Cleveland Center
07:49PM 40.6925 -82.1831 205° Southwest 339 390 29,800 1,920 Climbing Indianapolis Center
07:50PM 40.6133 -82.2389 208° Southwest 325 374 31,800 1,620 Climbing Indianapolis Center
07:51PM 40.5311 -82.2753 199° South 325 374 33,200 540 Climbing Indianapolis Center
07:52PM 40.4331 -82.2400 165° South 362 417 33,000 -120 Descending Indianapolis Center
07:53PM 40.3322 -82.1883 159° South 382 440 33,000  Level Indianapolis Center
07:54PM 40.2228 -82.1214 155° Southeast 389 448 33,000  Level Indianapolis Center
07:55PM 40.1306 -82.0367 145° Southeast 401 461 33,000  Level Indianapolis Center
07:56PM 40.0331 -81.9689 152° Southeast 394 453 33,100  Climbing Indianapolis Center
07:57PM 39.9317 -81.9133 157° South 391 450 33,000 -60 Descending Indianapolis Center
07:58PM 39.8303 -81.8592 158° South 389 448 33,000  Level Indianapolis Center
07:59PM 39.7289 -81.8050 158° South 389 448 33,000  Level Indianapolis Center
08:00PM 39.6242 -81.7378 154° Southeast 395 455 33,000  Level Indianapolis Center
08:01PM 39.5231 -81.6822 157° South 392 451 33,100  Climbing Indianapolis Center
08:02PM 39.4261 -81.6233 155° Southeast 385 443 33,000 -60 Descending Indianapolis Center
08:03PM 39.3281 -81.5656 155° Southeast 386 444 33,000  Level Indianapolis Center
08:04PM 39.2306 -81.5081 155° Southeast 383 441 33,000  Level Indianapolis Center
08:06PM 39.1144 -81.4403 156° South 380 437 33,100  Climbing Indianapolis Center
08:07PM 39.0156 -81.3919 159° South 377 434 33,000  Descending Indianapolis Center
08:08PM 38.9169 -81.3408 158° South 378 435 33,100 -300 Climbing Indianapolis Center
08:09PM 38.8203 -81.2800 154° Southeast 380 437 32,500 -1,140 Descending Indianapolis Center
08:10PM 38.7228 -81.2286 158° South 373 429 30,800 -1,620 Descending Indianapolis Center
08:11PM 38.6253 -81.1769 158° South 374 430 29,200 -1,740 Descending Indianapolis Center
08:12PM 38.5286 -81.1236 157° South 374 430 27,300 -1,920 Descending Indianapolis Center
08:13PM 38.4328 -81.0686 156° South 376 433 25,300 -1,860 Descending Indianapolis Center
08:14PM 38.3369 -81.0119 155° Southeast 380 437 23,600 -1,800 Descending Indianapolis Center
08:14PM 38.2833 -80.9908 163° South 384 442 22,600 -1,860 Descending Washington Center
08:15PM 38.1894 -80.9444 159° South 378 435 20,900 -1,800 Descending Washington Center
08:16PM 38.1000 -80.8931 156° South 367 422 19,100 -1,500 Descending Washington Center
08:17PM 38.0264 -80.8536 157° South 339 390 18,000 -1,320 Descending Washington Center
08:18PM 37.9472 -80.8086 156° South 325 374 16,500 -1,380 Descending Washington Center
08:19PM 37.8717 -80.7692 158° South 314 361 15,300 -1,380 Descending Washington Center
08:20PM 37.7964 -80.7272 156° South 303 349 13,800 -1,620 Descending Washington Center
08:21PM 37.7150 -80.6797 155° Southeast 298 343 12,100 -1,500 Descending Washington Center
08:22PM 37.6414 -80.6406 157° South 298 343 10,800 -1,320 Descending Washington Center
08:23PM 37.5681 -80.6017 157° South 293 337 9,500 -1,320 Descending Washington Center
08:24PM 37.5047 -80.5661 156° South 288 331 8,200 -1,380 Descending Washington Center
08:25PM 37.4328 -80.5431 166° South 282 325 6,800 -1,320 Descending Washington Center
08:26PM 37.3600 -80.5383 177° South 277 319 5,700 -900 Descending Washington Center
08:27PM 37.2911 -80.5389 180° South 261 300 5,000 -960 Descending Washington Center
08:28PM 37.2447 -80.4994 146° Southeast 201 231 3,800 -1,140 Descending Washington Center
08:29PM 37.2236 -80.4539 120° Southeast 165 190 2,800 -600 Descending Washington Center
08:30PM 37.1914 -80.4231 143° Southeast 159 183 2,700 -120 Descending Washington Center